Time,TemperatureF,DewpointF,PressureIn,WindDirection,WindDirectionDegrees,WindSpeedMPH,WindSpeedGustMPH,Humidity,HourlyPrecipIn,Conditions,Clouds,dailyrainin,SoftwareType,DateUTC
2013-02-07 00:01:00,29.3,24.5,24.04,SW,233,0.0,0.0,82,0.00,,---,0.00,VWS V14.01,2013-02-07 07:01:00,
2013-02-07 00:06:00,28.9,23.9,24.04,SW,233,0.0,0.0,81,0.00,,---,0.00,VWS V14.01,2013-02-07 07:06:00,
2013-02-07 00:12:00,28.8,23.7,24.04,SW,233,0.0,0.0,81,0.00,,---,0.00,VWS V14.01,2013-02-07 07:12:00,
2013-02-07 00:17:00,28.6,23.5,24.04,SW,233,0.0,0.0,81,0.00,,---,0.00,VWS V14.01,2013-02-07 07:17:00,
2013-02-07 00:23:00,28.6,23.5,24.04,SW,233,0.0,0.0,81,0.00,,---,0.00,VWS V14.01,2013-02-07 07:23:00,
2013-02-07 00:29:00,28.8,24.0,24.04,SW,233,0.0,0.0,82,0.00,,---,0.00,VWS V14.01,2013-02-07 07:29:00,
2013-02-07 00:35:00,28.6,23.8,24.04,SW,233,0.0,0.0,82,0.00,,---,0.00,VWS V14.01,2013-02-07 07:35:00,
2013-02-07 00:41:00,28.2,23.4,24.04,SW,233,0.0,0.0,82,0.00,,---,0.00,VWS V14.01,2013-02-07 07:41:00,
2013-02-07 00:47:00,27.9,23.1,24.04,SW,233,0.0,0.0,82,0.00,,---,0.00,VWS V14.01,2013-02-07 07:47:00,
2013-02-07 00:53:00,27.7,22.9,24.04,SW,233,0.0,0.0,82,0.00,,---,0.00,VWS V14.01,2013-02-07 07:53:00,
2013-02-07 00:59:00,27.5,22.7,24.04,SW,233,0.0,0.0,82,0.00,,---,0.00,VWS V14.01,2013-02-07 07:59:00,
2013-02-07 01:08:00,27.1,22.4,24.04,SW,233,0.0,0.0,82,0.00,,---,0.00,VWS V14.01,2013-02-07 08:08:00,
2013-02-07 01:14:00,27.1,22.4,24.04,SW,233,0.0,0.0,82,0.00,,---,0.00,VWS V14.01,2013-02-07 08:14:00,
2013-02-07 01:20:00,27.3,22.9,24.04,SW,233,0.0,0.0,83,0.00,,---,0.00,VWS V14.01,2013-02-07 08:20:00,
2013-02-07 01:25:00,27.1,22.7,24.04,SW,233,0.0,0.0,83,0.00,,---,0.00,VWS V14.01,2013-02-07 08:25:00,
2013-02-07 01:31:00,27.0,22.2,24.04,SW,233,0.0,0.0,82,0.00,,---,0.00,VWS V14.01,2013-02-07 08:31:00,
2013-02-07 01:36:00,26.8,22.0,24.04,SW,233,0.0,0.0,82,0.00,,---,0.00,VWS V14.01,2013-02-07 08:36:00,
2013-02-07 01:42:00,27.0,22.5,24.04,SW,233,0.0,0.0,83,0.00,,---,0.00,VWS V14.01,2013-02-07 08:42:00,
2013-02-07 01:48:00,26.8,22.0,24.04,SW,233,0.0,0.0,82,0.00,,---,0.00,VWS V14.01,2013-02-07 08:48:00,
2013-02-07 01:54:00,26.6,21.9,24.04,SW,233,0.0,0.0,82,0.00,,---,0.00,VWS V14.01,2013-02-07 08:54:00,
2013-02-07 02:00:00,26.4,21.7,24.07,SW,233,0.0,0.0,82,0.00,,---,0.00,VWS V14.01,2013-02-07 09:00:00,
2013-02-07 02:05:00,26.6,21.9,24.07,SW,233,0.0,0.0,82,0.00,,---,0.00,VWS V14.01,2013-02-07 09:05:00,
2013-02-07 02:11:00,26.6,21.9,24.07,SW,233,0.0,0.0,82,0.00,,---,0.00,VWS V14.01,2013-02-07 09:11:00,
2013-02-07 02:17:00,27.0,21.9,24.07,SW,233,0.0,0.0,81,0.00,,---,0.00,VWS V14.01,2013-02-07 09:17:00,
2013-02-07 02:22:00,26.8,21.7,24.07,SW,233,0.0,0.0,81,0.00,,---,0.00,VWS V14.01,2013-02-07 09:22:00,
2013-02-07 02:28:00,26.6,21.6,24.07,SW,233,0.0,0.0,81,0.00,,---,0.00,VWS V14.01,2013-02-07 09:28:00,
2013-02-07 02:33:00,26.6,21.6,24.07,SW,233,0.0,0.0,81,0.00,,---,0.00,VWS V14.01,2013-02-07 09:33:00,
2013-02-07 02:38:00,26.4,21.4,24.07,SW,233,0.0,0.0,81,0.00,,---,0.00,VWS V14.01,2013-02-07 09:38:00,
2013-02-07 02:43:00,26.4,21.4,24.07,SW,233,0.0,0.0,81,0.00,,---,0.00,VWS V14.01,2013-02-07 09:43:00,
2013-02-07 02:49:00,26.4,21.1,24.07,SW,233,0.0,0.0,80,0.00,,---,0.00,VWS V14.01,2013-02-07 09:49:00,
2013-02-07 02:54:00,26.2,20.9,24.07,SW,233,0.0,0.0,80,0.00,,---,0.00,VWS V14.01,2013-02-07 09:54:00,
2013-02-07 03:00:00,26.1,20.8,24.07,SW,233,0.0,0.0,80,0.00,,---,0.00,VWS V14.01,2013-02-07 10:00:00,
2013-02-07 03:06:00,26.1,20.8,24.07,SW,233,0.0,0.0,80,0.00,,---,0.00,VWS V14.01,2013-02-07 10:06:00,
2013-02-07 03:12:00,25.9,20.6,24.07,SW,233,0.0,0.0,80,0.00,,---,0.00,VWS V14.01,2013-02-07 10:12:00,
2013-02-07 03:18:00,25.5,20.2,24.07,SW,233,0.0,0.0,80,0.00,,---,0.00,VWS V14.01,2013-02-07 10:18:00,
2013-02-07 03:23:00,25.3,20.0,24.07,SW,233,0.0,0.0,80,0.00,,---,0.00,VWS V14.01,2013-02-07 10:23:00,
2013-02-07 03:29:00,25.2,19.6,24.07,SW,233,0.0,0.0,79,0.00,,---,0.00,VWS V14.01,2013-02-07 10:29:00,
2013-02-07 03:34:00,25.0,19.4,24.07,SW,233,0.0,0.0,79,0.00,,---,0.00,VWS V14.01,2013-02-07 10:34:00,
2013-02-07 03:39:00,24.8,19.5,24.07,SW,233,0.0,0.0,80,0.00,,---,0.00,VWS V14.01,2013-02-07 10:39:00,
2013-02-07 03:45:00,24.4,19.2,24.07,SW,233,0.0,0.0,80,0.00,,---,0.00,VWS V14.01,2013-02-07 10:45:00,
2013-02-07 03:50:00,24.4,18.9,24.07,SW,233,0.0,0.0,79,0.00,,---,0.00,VWS V14.01,2013-02-07 10:50:00,
2013-02-07 03:56:00,24.3,19.0,24.07,SW,233,0.0,0.0,80,0.00,,---,0.00,VWS V14.01,2013-02-07 10:56:00,
2013-02-07 04:01:00,24.3,18.7,24.07,SW,233,0.0,0.0,79,0.00,,---,0.00,VWS V14.01,2013-02-07 11:01:00,
2013-02-07 04:07:00,24.3,19.0,24.07,SW,233,0.0,0.0,80,0.00,,---,0.00,VWS V14.01,2013-02-07 11:07:00,
2013-02-07 04:12:00,24.3,19.0,24.07,SW,233,0.0,0.0,80,0.00,,---,0.00,VWS V14.01,2013-02-07 11:12:00,
2013-02-07 04:17:00,24.1,18.8,24.07,SW,233,0.0,0.0,80,0.00,,---,0.00,VWS V14.01,2013-02-07 11:17:00,
2013-02-07 04:23:00,23.9,18.6,24.07,SW,233,0.0,0.0,80,0.00,,---,0.00,VWS V14.01,2013-02-07 11:23:00,
2013-02-07 04:28:00,23.7,18.5,24.07,SW,233,0.0,0.0,80,0.00,,---,0.00,VWS V14.01,2013-02-07 11:28:00,
2013-02-07 04:34:00,23.5,18.0,24.07,SW,233,0.0,0.0,79,0.00,,---,0.00,VWS V14.01,2013-02-07 11:34:00,
2013-02-07 04:40:00,23.4,18.1,24.07,SW,233,0.0,0.0,80,0.00,,---,0.00,VWS V14.01,2013-02-07 11:40:00,
2013-02-07 04:46:00,23.2,17.9,24.07,SW,233,0.0,0.0,80,0.00,,---,0.00,VWS V14.01,2013-02-07 11:46:00,
2013-02-07 04:52:00,23.0,17.8,24.07,SW,233,0.0,0.0,80,0.00,,---,0.00,VWS V14.01,2013-02-07 11:52:00,
2013-02-07 04:58:00,23.0,17.8,24.07,SW,233,0.0,0.0,80,0.00,,---,0.00,VWS V14.01,2013-02-07 11:58:00,
2013-02-07 05:03:00,22.8,17.6,24.07,SW,233,0.0,0.0,80,0.00,,---,0.00,VWS V14.01,2013-02-07 12:03:00,
2013-02-07 05:09:00,22.8,17.6,24.07,SW,233,0.0,0.0,80,0.00,,---,0.00,VWS V14.01,2013-02-07 12:09:00,
2013-02-07 05:15:00,22.8,17.6,24.07,SW,233,0.0,0.0,80,0.00,,---,0.00,VWS V14.01,2013-02-07 12:15:00,
2013-02-07 05:20:00,22.8,17.6,24.07,SW,233,0.0,0.0,80,0.00,,---,0.00,VWS V14.01,2013-02-07 12:20:00,
2013-02-07 05:26:00,22.6,17.4,24.07,SW,233,0.0,0.0,80,0.00,,---,0.00,VWS V14.01,2013-02-07 12:26:00,
2013-02-07 05:32:00,22.5,17.2,24.07,SW,233,0.0,0.0,80,0.00,,---,0.00,VWS V14.01,2013-02-07 12:32:00,
2013-02-07 05:37:00,22.1,16.9,24.07,SW,233,0.0,0.0,80,0.00,,---,0.00,VWS V14.01,2013-02-07 12:37:00,
2013-02-07 05:43:00,21.9,16.7,24.07,SW,233,0.0,0.0,80,0.00,,---,0.00,VWS V14.01,2013-02-07 12:43:00,
2013-02-07 05:48:00,21.7,16.5,24.07,SW,233,0.0,0.0,80,0.00,,---,0.00,VWS V14.01,2013-02-07 12:48:00,
2013-02-07 05:53:00,21.6,16.4,24.07,SW,233,0.0,0.0,80,0.00,,---,0.00,VWS V14.01,2013-02-07 12:53:00,
2013-02-07 05:59:00,21.6,16.4,24.07,SW,233,0.0,0.0,80,0.00,,---,0.00,VWS V14.01,2013-02-07 12:59:00,
2013-02-07 06:04:00,21.4,16.2,24.07,SW,233,0.0,0.0,80,0.00,,---,0.00,VWS V14.01,2013-02-07 13:04:00,
2013-02-07 06:10:00,21.2,16.0,24.07,SW,233,0.0,0.0,80,0.00,,---,0.00,VWS V14.01,2013-02-07 13:10:00,
2013-02-07 06:16:00,21.2,16.0,24.07,SW,233,0.0,0.0,80,0.00,,---,0.00,VWS V14.01,2013-02-07 13:16:00,
2013-02-07 06:22:00,21.0,15.8,24.07,SW,233,0.0,0.0,80,0.00,,---,0.00,VWS V14.01,2013-02-07 13:22:00,
2013-02-07 06:28:00,20.8,15.7,24.07,SW,233,0.0,0.0,80,0.00,,---,0.00,VWS V14.01,2013-02-07 13:28:00,
2013-02-07 06:34:00,20.7,15.5,24.07,SW,233,0.0,0.0,80,0.00,,---,0.00,VWS V14.01,2013-02-07 13:34:00,
2013-02-07 06:40:00,20.3,15.1,24.07,SW,233,0.0,0.0,80,0.00,,---,0.00,VWS V14.01,2013-02-07 13:40:00,
2013-02-07 06:46:00,20.3,15.1,24.07,SW,233,0.0,0.0,80,0.00,,---,0.00,VWS V14.01,2013-02-07 13:46:00,
2013-02-07 06:52:00,20.3,15.1,24.07,SW,233,0.0,0.0,80,0.00,,---,0.00,VWS V14.01,2013-02-07 13:52:00,
2013-02-07 06:57:00,20.3,15.1,24.10,SW,233,0.0,0.0,80,0.00,,---,0.00,VWS V14.01,2013-02-07 13:57:00,
2013-02-07 07:03:00,20.3,15.1,24.10,SW,233,0.0,0.0,80,0.00,,---,0.00,VWS V14.01,2013-02-07 14:03:00,
2013-02-07 07:09:00,20.3,15.1,24.10,SW,233,0.0,0.0,80,0.00,,---,0.00,VWS V14.01,2013-02-07 14:09:00,
2013-02-07 07:15:00,20.3,15.1,24.10,SW,233,0.0,0.0,80,0.00,,---,0.00,VWS V14.01,2013-02-07 14:15:00,
2013-02-07 07:20:00,20.3,15.1,24.10,SW,233,0.0,0.0,80,0.00,,---,0.00,VWS V14.01,2013-02-07 14:20:00,
2013-02-07 07:25:00,20.1,14.9,24.10,SW,233,0.0,0.0,80,0.00,,---,0.00,VWS V14.01,2013-02-07 14:25:00,
2013-02-07 07:31:00,20.1,14.9,24.10,SW,233,0.0,0.0,80,0.00,,---,0.00,VWS V14.01,2013-02-07 14:31:00,
2013-02-07 07:37:00,20.3,15.1,24.10,SW,233,0.0,0.0,80,0.00,,---,0.00,VWS V14.01,2013-02-07 14:37:00,
2013-02-07 07:43:00,20.3,15.1,24.10,SW,233,0.0,0.0,80,0.00,,---,0.00,VWS V14.01,2013-02-07 14:43:00,
2013-02-07 07:49:00,20.5,15.3,24.10,SW,233,0.0,0.0,80,0.00,,---,0.00,VWS V14.01,2013-02-07 14:49:00,
2013-02-07 07:55:00,20.5,15.0,24.10,SW,233,0.0,0.0,79,0.00,,---,0.00,VWS V14.01,2013-02-07 14:55:00,
2013-02-07 08:01:00,20.3,14.8,24.10,SW,233,0.0,0.0,79,0.00,,---,0.00,VWS V14.01,2013-02-07 15:01:00,
2013-02-07 08:06:00,20.1,14.4,24.10,SW,233,0.0,0.0,78,0.00,,---,0.00,VWS V14.01,2013-02-07 15:06:00,
2013-02-07 08:12:00,19.9,13.9,24.10,SW,233,0.0,0.0,77,0.00,,---,0.00,VWS V14.01,2013-02-07 15:12:00,
2013-02-07 08:18:00,20.1,14.1,24.10,SW,233,0.0,0.0,77,0.00,,---,0.00,VWS V14.01,2013-02-07 15:18:00,
2013-02-07 08:24:00,20.3,14.3,24.10,SW,233,0.0,0.0,77,0.00,,---,0.00,VWS V14.01,2013-02-07 15:24:00,
2013-02-07 08:30:00,20.3,14.3,24.10,SW,233,0.0,0.0,77,0.00,,---,0.00,VWS V14.01,2013-02-07 15:30:00,
2013-02-07 08:36:00,20.5,14.4,24.10,SW,233,0.0,0.0,77,0.00,,---,0.00,VWS V14.01,2013-02-07 15:36:00,
2013-02-07 08:42:00,20.5,14.1,24.10,SW,233,0.0,0.0,76,0.00,,---,0.00,VWS V14.01,2013-02-07 15:42:00,
2013-02-07 08:48:00,20.7,14.3,24.10,SW,233,0.0,0.0,76,0.00,,---,0.00,VWS V14.01,2013-02-07 15:48:00,
2013-02-07 08:54:00,21.2,15.1,24.10,SW,233,0.0,0.0,77,0.00,,---,0.00,VWS V14.01,2013-02-07 15:54:00,
2013-02-07 08:59:00,21.4,15.0,24.10,SW,233,0.0,0.0,76,0.00,,---,0.00,VWS V14.01,2013-02-07 15:59:00,
2013-02-07 09:05:00,21.6,14.9,24.10,SW,233,0.0,0.0,75,0.00,,---,0.00,VWS V14.01,2013-02-07 16:05:00,
2013-02-07 09:10:00,21.9,15.2,24.10,SW,233,0.0,0.0,75,0.00,,---,0.00,VWS V14.01,2013-02-07 16:10:00,
2013-02-07 09:16:00,22.1,15.4,24.10,SW,233,0.0,0.0,75,0.00,,---,0.00,VWS V14.01,2013-02-07 16:16:00,
2013-02-07 09:21:00,22.5,15.8,24.10,SW,233,0.0,0.0,75,0.00,,---,0.00,VWS V14.01,2013-02-07 16:21:00,
2013-02-07 09:27:00,23.4,16.6,24.10,SW,233,0.0,0.0,75,0.00,,---,0.00,VWS V14.01,2013-02-07 16:27:00,
2013-02-07 09:33:00,25.3,19.5,24.10,SW,233,0.0,0.0,78,0.00,,---,0.00,VWS V14.01,2013-02-07 16:33:00,
2013-02-07 09:39:00,27.3,21.7,24.10,SW,233,0.0,0.0,79,0.00,,---,0.00,VWS V14.01,2013-02-07 16:39:00,
2013-02-07 09:44:00,28.2,22.2,24.10,SW,233,0.0,0.0,78,0.00,,---,0.00,VWS V14.01,2013-02-07 16:44:00,
2013-02-07 09:50:00,29.3,22.1,24.10,SW,233,0.0,0.0,74,0.00,,---,0.00,VWS V14.01,2013-02-07 16:50:00,
2013-02-07 09:55:00,30.2,21.3,24.10,SW,233,0.0,0.0,69,0.00,,---,0.00,VWS V14.01,2013-02-07 16:55:00,
2013-02-07 10:00:00,31.5,21.1,24.10,SW,233,0.0,0.0,65,0.00,,---,0.00,VWS V14.01,2013-02-07 17:00:00,
2013-02-07 10:05:00,32.7,17.9,24.10,SW,233,0.0,0.0,54,0.00,,---,0.00,VWS V14.01,2013-02-07 17:05:00,
2013-02-07 10:11:00,35.1,14.3,24.10,SW,234,0.0,0.0,42,0.00,,---,0.00,VWS V14.01,2013-02-07 17:11:00,
2013-02-07 10:16:00,36.3,14.3,24.10,NNW,344,0.0,0.0,40,0.00,,---,0.00,VWS V14.01,2013-02-07 17:16:00,
2013-02-07 10:22:00,37.6,13.7,24.10,North,7,0.0,0.0,37,0.00,,---,0.00,VWS V14.01,2013-02-07 17:22:00,
2013-02-07 10:28:00,38.3,13.1,24.10,North,8,0.0,0.0,35,0.00,,---,0.00,VWS V14.01,2013-02-07 17:28:00,
2013-02-07 10:34:00,38.7,12.1,24.10,NNE,31,0.0,0.0,33,0.00,,---,0.00,VWS V14.01,2013-02-07 17:34:00,
2013-02-07 10:39:00,38.8,11.5,24.10,NE,48,0.0,0.0,32,0.00,,---,0.00,VWS V14.01,2013-02-07 17:39:00,
2013-02-07 10:45:00,39.2,11.8,24.10,SSE,164,0.0,0.0,32,0.00,,---,0.00,VWS V14.01,2013-02-07 17:45:00,
2013-02-07 10:51:00,39.4,11.3,24.10,North,353,3.1,6.3,31,0.00,,---,0.00,VWS V14.01,2013-02-07 17:51:00,
2013-02-07 10:57:00,39.7,10.9,24.10,ENE,65,3.1,7.2,30,0.00,,---,0.00,VWS V14.01,2013-02-07 17:57:00,
2013-02-07 11:03:00,39.7,10.1,24.10,NE,42,5.4,6.3,29,0.00,,---,0.00,VWS V14.01,2013-02-07 18:03:00,
2013-02-07 11:09:00,40.1,10.4,24.10,North,353,6.3,7.2,29,0.00,,---,0.00,VWS V14.01,2013-02-07 18:09:00,
2013-02-07 11:15:00,40.5,10.7,24.10,NE,37,6.3,7.6,29,0.00,,---,0.00,VWS V14.01,2013-02-07 18:15:00,
2013-02-07 11:21:00,40.6,10.9,24.10,NNE,13,5.4,6.3,29,0.00,,---,0.00,VWS V14.01,2013-02-07 18:21:00,
2013-02-07 11:27:00,41.0,11.2,24.07,ENE,78,3.6,5.8,29,0.00,,---,0.00,VWS V14.01,2013-02-07 18:27:00,
2013-02-07 11:32:00,41.4,10.7,24.07,ENE,76,3.1,5.4,28,0.00,,---,0.00,VWS V14.01,2013-02-07 18:32:00,
2013-02-07 11:38:00,41.4,10.7,24.07,NNE,15,3.1,7.6,28,0.00,,---,0.00,VWS V14.01,2013-02-07 18:38:00,
2013-02-07 11:44:00,41.7,11.0,24.07,NNE,17,2.7,3.1,28,0.00,,---,0.00,VWS V14.01,2013-02-07 18:44:00,
2013-02-07 11:50:00,42.1,11.3,24.07,NNE,23,6.3,6.3,28,0.00,,---,0.00,VWS V14.01,2013-02-07 18:50:00,
2013-02-07 11:56:00,42.1,11.3,24.07,NNE,28,8.7,8.7,28,0.00,,---,0.00,VWS V14.01,2013-02-07 18:56:00,
2013-02-07 12:01:00,42.1,11.3,24.07,NNE,23,5.8,5.8,28,0.00,,---,0.00,VWS V14.01,2013-02-07 19:01:00,
2013-02-07 12:07:00,42.4,11.7,24.07,NNE,20,3.1,5.8,28,0.00,,---,0.00,VWS V14.01,2013-02-07 19:07:00,
2013-02-07 12:13:00,42.8,12.0,24.07,NE,54,5.4,5.4,28,0.00,,---,0.00,VWS V14.01,2013-02-07 19:13:00,
2013-02-07 12:19:00,43.5,12.6,24.07,North,9,4.0,11.0,28,0.00,,---,0.00,VWS V14.01,2013-02-07 19:19:00,
2013-02-07 12:25:00,43.7,12.8,24.04,ENE,67,4.9,6.3,28,0.00,,---,0.00,VWS V14.01,2013-02-07 19:25:00,
2013-02-07 12:30:00,43.5,12.6,24.04,NE,35,5.8,10.1,28,0.00,,---,0.00,VWS V14.01,2013-02-07 19:30:00,
2013-02-07 12:36:00,43.5,12.6,24.04,NE,49,5.8,9.2,28,0.00,,---,0.00,VWS V14.01,2013-02-07 19:36:00,
2013-02-07 12:42:00,43.5,12.6,24.04,NE,40,8.1,8.1,28,0.00,,---,0.00,VWS V14.01,2013-02-07 19:42:00,
2013-02-07 12:47:00,43.7,12.8,24.04,NNE,15,10.5,12.8,28,0.00,,---,0.00,VWS V14.01,2013-02-07 19:47:00,
2013-02-07 12:52:00,44.1,13.1,24.04,ENE,64,5.4,6.3,28,0.00,,---,0.00,VWS V14.01,2013-02-07 19:52:00,
2013-02-07 12:58:00,44.4,13.4,24.04,NNE,29,7.6,8.1,28,0.00,,---,0.00,VWS V14.01,2013-02-07 19:58:00,
2013-02-07 13:04:00,44.6,12.7,24.04,North,6,6.3,8.1,27,0.00,,---,0.00,VWS V14.01,2013-02-07 20:04:00,
2013-02-07 13:10:00,44.6,12.7,24.04,East,97,3.1,6.3,27,0.00,,---,0.00,VWS V14.01,2013-02-07 20:10:00,
2013-02-07 13:16:00,45.0,13.0,24.04,North,11,11.0,11.0,27,0.00,,---,0.00,VWS V14.01,2013-02-07 20:16:00,
2013-02-07 13:22:00,44.8,12.9,24.04,North,5,6.3,8.1,27,0.00,,---,0.00,VWS V14.01,2013-02-07 20:22:00,
2013-02-07 13:27:00,44.8,12.9,24.04,ENE,78,3.1,11.0,27,0.00,,---,0.00,VWS V14.01,2013-02-07 20:27:00,
2013-02-07 13:33:00,44.6,12.7,24.04,North,357,6.3,10.1,27,0.00,,---,0.00,VWS V14.01,2013-02-07 20:33:00,
2013-02-07 13:38:00,44.6,12.7,24.04,NNE,30,8.3,8.3,27,0.00,,---,0.00,VWS V14.01,2013-02-07 20:38:00,
2013-02-07 13:44:00,45.0,13.0,24.04,NNE,17,8.1,8.1,27,0.00,,---,0.00,VWS V14.01,2013-02-07 20:44:00,
2013-02-07 13:49:00,45.1,13.2,24.04,North,7,6.3,11.0,27,0.00,,---,0.00,VWS V14.01,2013-02-07 20:49:00,
2013-02-07 13:55:00,44.8,12.9,24.01,NNE,18,4.0,7.6,27,0.00,,---,0.00,VWS V14.01,2013-02-07 20:55:00,
2013-02-07 14:01:00,45.1,13.2,24.01,ENE,68,5.4,6.3,27,0.00,,---,0.00,VWS V14.01,2013-02-07 21:01:00,
2013-02-07 14:07:00,45.7,14.5,24.01,NE,36,5.8,6.3,28,0.00,,---,0.00,VWS V14.01,2013-02-07 21:07:00,
2013-02-07 14:12:00,45.7,14.5,24.01,ENE,75,5.4,10.1,28,0.00,,---,0.00,VWS V14.01,2013-02-07 21:12:00,
2013-02-07 14:17:00,45.5,14.3,24.01,ENE,71,3.1,6.3,28,0.00,,---,0.00,VWS V14.01,2013-02-07 21:17:00,
2013-02-07 14:23:00,45.9,14.6,24.01,NE,55,4.0,4.0,28,0.00,,---,0.00,VWS V14.01,2013-02-07 21:23:00,
2013-02-07 14:29:00,46.2,14.9,24.01,ENE,64,0.0,4.9,28,0.00,,---,0.00,VWS V14.01,2013-02-07 21:29:00,
2013-02-07 14:34:00,45.7,14.5,24.01,SE,125,0.0,3.1,28,0.00,,---,0.00,VWS V14.01,2013-02-07 21:34:00,
2013-02-07 14:39:00,45.1,14.0,24.01,NE,52,3.1,5.8,28,0.00,,---,0.00,VWS V14.01,2013-02-07 21:39:00,
2013-02-07 14:45:00,43.9,12.9,24.01,North,11,0.0,0.0,28,0.00,,---,0.00,VWS V14.01,2013-02-07 21:45:00,
2013-02-07 14:51:00,41.9,12.0,24.01,NW,326,4.0,5.4,29,0.00,,---,0.00,VWS V14.01,2013-02-07 21:51:00,
2013-02-07 14:57:00,41.4,11.5,24.01,ENE,76,2.7,2.7,29,0.00,,---,0.00,VWS V14.01,2013-02-07 21:57:00,
2013-02-07 15:03:00,41.2,11.4,24.01,ESE,110,0.0,2.7,29,0.00,,---,0.00,VWS V14.01,2013-02-07 22:03:00,
2013-02-07 15:08:00,41.0,12.0,24.01,NNE,31,0.0,2.2,30,0.00,,---,0.00,VWS V14.01,2013-02-07 22:08:00,
2013-02-07 15:14:00,40.6,11.6,24.01,East,82,0.0,0.0,30,0.00,,---,0.00,VWS V14.01,2013-02-07 22:14:00,
2013-02-07 15:20:00,40.3,11.3,24.01,ESE,111,0.0,0.0,30,0.00,,---,0.00,VWS V14.01,2013-02-07 22:20:00,
2013-02-07 15:26:00,39.7,11.6,24.01,ESE,111,0.0,0.0,31,0.00,,---,0.00,VWS V14.01,2013-02-07 22:26:00,
2013-02-07 15:32:00,39.4,11.3,24.01,ESE,111,0.0,0.0,31,0.00,,---,0.00,VWS V14.01,2013-02-07 22:32:00,
2013-02-07 15:38:00,39.0,11.7,24.01,ESE,111,0.0,0.0,32,0.00,,---,0.00,VWS V14.01,2013-02-07 22:38:00,
2013-02-07 15:44:00,38.7,11.4,24.01,ESE,111,0.0,0.0,32,0.00,,---,0.00,VWS V14.01,2013-02-07 22:44:00,
2013-02-07 15:49:00,38.3,11.0,24.01,ESE,111,0.0,0.0,32,0.00,,---,0.00,VWS V14.01,2013-02-07 22:49:00,
2013-02-07 15:55:00,37.8,11.3,24.01,ESE,111,0.0,0.0,33,0.00,,---,0.00,VWS V14.01,2013-02-07 22:55:00,
2013-02-07 16:01:00,37.4,10.9,24.01,NNW,344,2.7,4.0,33,0.00,,---,0.00,VWS V14.01,2013-02-07 23:01:00,
2013-02-07 16:06:00,37.2,11.4,24.01,West,274,5.8,5.8,34,0.00,,---,0.00,VWS V14.01,2013-02-07 23:06:00,
2013-02-07 16:11:00,37.2,12.1,24.01,SW,224,0.0,0.0,35,0.00,,---,0.00,VWS V14.01,2013-02-07 23:11:00,
2013-02-07 16:17:00,37.0,11.9,24.01,SSW,203,2.7,4.0,35,0.00,,---,0.00,VWS V14.01,2013-02-07 23:17:00,
2013-02-07 16:22:00,37.0,11.9,24.01,ESE,123,4.0,4.0,35,0.00,,---,0.00,VWS V14.01,2013-02-07 23:22:00,
2013-02-07 16:28:00,37.6,11.8,24.01,NE,44,4.0,8.3,34,0.00,,---,0.00,VWS V14.01,2013-02-07 23:28:00,
2013-02-07 16:34:00,39.4,13.4,24.01,NNE,24,3.6,5.8,34,0.00,,---,0.00,VWS V14.01,2013-02-07 23:34:00,
2013-02-07 16:40:00,40.5,13.6,24.01,NNE,25,8.1,8.1,33,0.00,,---,0.00,VWS V14.01,2013-02-07 23:40:00,
2013-02-07 16:46:00,41.4,13.7,24.01,SW,227,3.6,3.6,32,0.00,,---,0.00,VWS V14.01,2013-02-07 23:46:00,
2013-02-07 16:52:00,38.8,12.2,24.01,SW,214,3.6,5.4,33,0.00,,---,0.00,VWS V14.01,2013-02-07 23:52:00,
2013-02-07 16:58:00,36.9,11.1,24.01,SW,236,3.6,3.6,34,0.00,,---,0.00,VWS V14.01,2013-02-07 23:58:00,
2013-02-07 17:04:00,36.1,10.5,24.01,West,277,5.4,5.8,34,0.00,,---,0.00,VWS V14.01,2013-02-08 00:04:00,
2013-02-07 17:09:00,36.1,11.1,24.01,SW,233,3.6,4.0,35,0.00,,---,0.00,VWS V14.01,2013-02-08 00:09:00,
2013-02-07 17:15:00,34.7,11.1,24.01,SW,227,3.1,3.6,37,0.00,,---,0.00,VWS V14.01,2013-02-08 00:15:00,
2013-02-07 17:21:00,33.6,10.7,24.01,West,267,3.6,3.6,38,0.00,,---,0.00,VWS V14.01,2013-02-08 00:21:00,
2013-02-07 17:27:00,33.6,11.3,24.01,West,272,0.0,0.0,39,0.00,,---,0.00,VWS V14.01,2013-02-08 00:27:00,
2013-02-07 17:32:00,33.1,10.8,24.01,West,272,0.0,0.0,39,0.00,,---,0.00,VWS V14.01,2013-02-08 00:32:00,
2013-02-07 17:37:00,32.5,10.9,24.01,West,272,0.0,0.0,40,0.00,,---,0.00,VWS V14.01,2013-02-08 00:37:00,
2013-02-07 17:43:00,31.6,10.6,24.04,West,272,0.0,0.0,41,0.00,,---,0.00,VWS V14.01,2013-02-08 00:43:00,
2013-02-07 17:49:00,31.5,10.5,24.04,West,263,0.0,0.0,41,0.00,,---,0.00,VWS V14.01,2013-02-08 00:49:00,
2013-02-07 17:54:00,31.1,10.2,24.04,West,263,0.0,0.0,41,0.00,,---,0.00,VWS V14.01,2013-02-08 00:54:00,
2013-02-07 17:59:00,30.4,9.5,24.04,West,263,0.0,0.0,41,0.00,,---,0.00,VWS V14.01,2013-02-08 00:59:00,
2013-02-07 18:05:00,30.2,9.9,24.04,West,263,0.0,0.0,42,0.00,,---,0.00,VWS V14.01,2013-02-08 01:05:00,
2013-02-07 18:10:00,29.7,9.4,24.04,West,263,0.0,0.0,42,0.00,,---,0.00,VWS V14.01,2013-02-08 01:10:00,
2013-02-07 18:16:00,29.3,9.1,24.04,West,263,0.0,0.0,42,0.00,,---,0.00,VWS V14.01,2013-02-08 01:16:00,
2013-02-07 18:21:00,28.9,8.7,24.04,West,263,0.0,0.0,42,0.00,,---,0.00,VWS V14.01,2013-02-08 01:21:00,
2013-02-07 18:26:00,28.8,8.6,24.04,West,263,0.0,0.0,42,0.00,,---,0.00,VWS V14.01,2013-02-08 01:26:00,
2013-02-07 18:32:00,28.8,8.6,24.04,West,263,0.0,0.0,42,0.00,,---,0.00,VWS V14.01,2013-02-08 01:32:00,
2013-02-07 18:38:00,28.6,8.4,24.04,West,263,0.0,0.0,42,0.00,,---,0.00,VWS V14.01,2013-02-08 01:38:00,
2013-02-07 18:43:00,28.4,8.2,24.04,West,263,0.0,0.0,42,0.00,,---,0.00,VWS V14.01,2013-02-08 01:43:00,
2013-02-07 18:48:00,28.0,8.4,24.04,West,263,0.0,0.0,43,0.00,,---,0.00,VWS V14.01,2013-02-08 01:48:00,
2013-02-07 18:53:00,28.0,8.4,24.04,West,263,0.0,0.0,43,0.00,,---,0.00,VWS V14.01,2013-02-08 01:53:00,
2013-02-07 18:59:00,27.9,8.3,24.04,West,263,0.0,0.0,43,0.00,,---,0.00,VWS V14.01,2013-02-08 01:59:00,
2013-02-07 19:05:00,27.7,8.1,24.04,West,263,0.0,0.0,43,0.00,,---,0.00,VWS V14.01,2013-02-08 02:05:00,
2013-02-07 19:11:00,27.3,8.3,24.04,West,263,0.0,0.0,44,0.00,,---,0.00,VWS V14.01,2013-02-08 02:11:00,
2013-02-07 19:16:00,27.0,8.0,24.04,West,263,0.0,0.0,44,0.00,,---,0.00,VWS V14.01,2013-02-08 02:16:00,
2013-02-07 19:22:00,27.0,8.5,24.04,West,263,0.0,0.0,45,0.00,,---,0.00,VWS V14.01,2013-02-08 02:22:00,
2013-02-07 19:28:00,27.0,8.0,24.04,West,263,0.0,0.0,44,0.00,,---,0.00,VWS V14.01,2013-02-08 02:28:00,
2013-02-07 19:34:00,27.1,8.1,24.04,West,263,0.0,0.0,44,0.00,,---,0.00,VWS V14.01,2013-02-08 02:34:00,
2013-02-07 19:40:00,27.0,8.0,24.04,West,263,0.0,0.0,44,0.00,,---,0.00,VWS V14.01,2013-02-08 02:40:00,
2013-02-07 19:45:00,26.8,7.8,24.04,West,263,0.0,0.0,44,0.00,,---,0.00,VWS V14.01,2013-02-08 02:45:00,
2013-02-07 19:51:00,26.6,8.1,24.04,West,263,0.0,0.0,45,0.00,,---,0.00,VWS V14.01,2013-02-08 02:51:00,
2013-02-07 19:56:00,26.4,8.0,24.04,West,263,0.0,0.0,45,0.00,,---,0.00,VWS V14.01,2013-02-08 02:56:00,
2013-02-07 20:02:00,26.2,8.3,24.04,West,263,0.0,0.0,46,0.00,,---,0.00,VWS V14.01,2013-02-08 03:02:00,
2013-02-07 20:08:00,26.1,8.1,24.04,West,263,0.0,0.0,46,0.00,,---,0.00,VWS V14.01,2013-02-08 03:08:00,
2013-02-07 20:14:00,26.1,7.6,24.04,West,263,0.0,0.0,45,0.00,,---,0.00,VWS V14.01,2013-02-08 03:14:00,
2013-02-07 20:19:00,26.2,7.8,24.04,West,263,0.0,0.0,45,0.00,,---,0.00,VWS V14.01,2013-02-08 03:19:00,
2013-02-07 20:25:00,26.1,7.6,24.04,West,263,0.0,0.0,45,0.00,,---,0.00,VWS V14.01,2013-02-08 03:25:00,
2013-02-07 20:30:00,25.9,7.5,24.04,West,263,0.0,0.0,45,0.00,,---,0.00,VWS V14.01,2013-02-08 03:30:00,
2013-02-07 20:36:00,25.5,7.2,24.04,West,263,0.0,0.0,45,0.00,,---,0.00,VWS V14.01,2013-02-08 03:36:00,
2013-02-07 20:41:00,25.5,7.6,24.01,West,263,0.0,0.0,46,0.00,,---,0.00,VWS V14.01,2013-02-08 03:41:00,
2013-02-07 20:47:00,25.2,7.3,24.01,West,263,0.0,0.0,46,0.00,,---,0.00,VWS V14.01,2013-02-08 03:47:00,
2013-02-07 20:53:00,24.8,7.4,24.01,West,263,0.0,0.0,47,0.00,,---,0.00,VWS V14.01,2013-02-08 03:53:00,
2013-02-07 20:59:00,24.8,7.4,24.01,West,263,0.0,0.0,47,0.00,,---,0.00,VWS V14.01,2013-02-08 03:59:00,
2013-02-07 21:05:00,24.8,7.0,24.01,WSW,238,0.0,0.0,46,0.00,,---,0.00,VWS V14.01,2013-02-08 04:05:00,
2013-02-07 21:10:00,24.8,7.0,24.01,WSW,238,0.0,0.0,46,0.00,,---,0.00,VWS V14.01,2013-02-08 04:10:00,
2013-02-07 21:16:00,25.0,6.7,24.01,WSW,238,0.0,0.0,45,0.00,,---,0.00,VWS V14.01,2013-02-08 04:16:00,
2013-02-07 21:22:00,24.8,6.5,24.01,WSW,238,0.0,0.0,45,0.00,,---,0.00,VWS V14.01,2013-02-08 04:22:00,
2013-02-07 21:28:00,24.6,6.3,24.01,WSW,238,0.0,0.0,45,0.00,,---,0.00,VWS V14.01,2013-02-08 04:28:00,
2013-02-07 21:34:00,24.8,6.0,24.01,WSW,238,0.0,0.0,44,0.00,,---,0.00,VWS V14.01,2013-02-08 04:34:00,
2013-02-07 21:40:00,25.2,5.8,24.01,WSW,238,0.0,0.0,43,0.00,,---,0.00,VWS V14.01,2013-02-08 04:40:00,
2013-02-07 21:46:00,25.2,5.8,24.01,WSW,238,0.0,0.0,43,0.00,,---,0.00,VWS V14.01,2013-02-08 04:46:00,
2013-02-07 21:52:00,25.0,5.1,24.01,WSW,238,0.0,0.0,42,0.00,,---,0.00,VWS V14.01,2013-02-08 04:52:00,
2013-02-07 21:58:00,24.8,5.5,24.01,WSW,238,0.0,0.0,43,0.00,,---,0.00,VWS V14.01,2013-02-08 04:58:00,
2013-02-07 22:00:00,24.6,5.3,24.01,WSW,238,0.0,0.0,43,0.00,,---,0.00,VWS V14.01,2013-02-08 05:00:00,
2013-02-07 22:01:00,24.6,5.3,24.01,WSW,238,0.0,0.0,43,0.00,,---,0.00,VWS V14.01,2013-02-08 05:01:00,
2013-02-07 22:05:00,24.4,5.2,24.01,WSW,238,0.0,0.0,43,0.00,,---,0.00,VWS V14.01,2013-02-08 05:05:00,
2013-02-07 22:11:00,24.1,4.8,24.01,WSW,238,0.0,0.0,43,0.00,,---,0.00,VWS V14.01,2013-02-08 05:11:00,
2013-02-07 22:12:00,24.1,4.8,24.01,WSW,238,0.0,0.0,43,0.00,,---,0.00,VWS V14.01,2013-02-08 05:12:00,
2013-02-07 22:18:00,24.1,4.8,24.01,WSW,238,0.0,0.0,43,0.00,,---,0.00,VWS V14.01,2013-02-08 05:18:00,
2013-02-07 22:24:00,23.9,4.2,24.01,WSW,238,0.0,0.0,42,0.00,,---,0.00,VWS V14.01,2013-02-08 05:24:00,
2013-02-07 22:30:00,23.5,4.3,24.01,WSW,238,0.0,0.0,43,0.00,,---,0.00,VWS V14.01,2013-02-08 05:30:00,
2013-02-07 22:35:00,23.4,4.2,24.01,WSW,238,0.0,0.0,43,0.00,,---,0.00,VWS V14.01,2013-02-08 05:35:00,
2013-02-07 22:40:00,23.4,4.2,24.01,WSW,238,0.0,0.0,43,0.00,,---,0.00,VWS V14.01,2013-02-08 05:40:00,
2013-02-07 22:45:00,23.4,4.2,24.01,WSW,238,0.0,0.0,43,0.00,,---,0.00,VWS V14.01,2013-02-08 05:45:00,
2013-02-07 22:51:00,23.2,4.0,24.01,WSW,238,0.0,0.0,43,0.00,,---,0.00,VWS V14.01,2013-02-08 05:51:00,
2013-02-07 22:56:00,23.2,3.5,24.01,WSW,238,0.0,0.0,42,0.00,,---,0.00,VWS V14.01,2013-02-08 05:56:00,
2013-02-07 23:02:00,23.2,3.5,24.01,WSW,238,0.0,0.0,42,0.00,,---,0.00,VWS V14.01,2013-02-08 06:02:00,
2013-02-07 23:08:00,22.8,3.7,24.01,WSW,238,0.0,0.0,43,0.00,,---,0.00,VWS V14.01,2013-02-08 06:08:00,
2013-02-07 23:14:00,23.0,3.3,24.01,WSW,238,0.0,0.0,42,0.00,,---,0.00,VWS V14.01,2013-02-08 06:14:00,
2013-02-07 23:20:00,22.8,3.2,24.01,WSW,238,0.0,0.0,42,0.00,,---,0.00,VWS V14.01,2013-02-08 06:20:00,
2013-02-07 23:26:00,22.5,2.8,24.01,WSW,238,0.0,0.0,42,0.00,,---,0.00,VWS V14.01,2013-02-08 06:26:00,
2013-02-07 23:32:00,22.5,2.8,24.01,WSW,238,0.0,0.0,42,0.00,,---,0.00,VWS V14.01,2013-02-08 06:32:00,
2013-02-07 23:38:00,22.3,2.7,24.01,WSW,238,0.0,0.0,42,0.00,,---,0.00,VWS V14.01,2013-02-08 06:38:00,
2013-02-07 23:44:00,21.9,2.9,24.01,WSW,238,0.0,0.0,43,0.00,,---,0.00,VWS V14.01,2013-02-08 06:44:00,
2013-02-07 23:49:00,22.1,2.5,24.01,WSW,238,0.0,0.0,42,0.00,,---,0.00,VWS V14.01,2013-02-08 06:49:00,
2013-02-07 23:55:00,22.1,2.5,23.98,WSW,238,0.0,0.0,42,0.00,,---,0.00,VWS V14.01,2013-02-08 06:55:00,